Time;durP1;ratioP1;P1;durP2;ratioP2;P2;SDS_P1;SDS_P2;PMS_P1;PMS_P2;Temp;Humidity;BMP_temperature;BMP_pressure;BME280_temperature;BME280_humidity;BME280_pressure;Samples;Min_cycle;Max_cycle;Signal;HPM_P1;HPM_P2
2021/08/06 00:02:14;;;;;;;10.15;3.97;;;26.30;63.20;;;;;;5005600;28;20200;-73
2021/08/06 00:04:39;;;;;;;5.10;4.20;;;26.30;63.40;;;;;;5005128;28;20177;-74
2021/08/06 00:07:05;;;;;;;4.65;3.70;;;26.30;63.30;;;;;;4994521;28;20177;-75
2021/08/06 00:09:35;;;;;;;5.65;4.20;;;26.30;63.10;;;;;;4991325;28;20582;-75
2021/08/06 00:12:01;;;;;;;11.63;3.83;;;26.30;63.10;;;;;;5004341;28;20185;-73
2021/08/06 00:14:27;;;;;;;7.88;4.43;;;26.30;63.20;;;;;;5000946;28;20211;-73
2021/08/06 00:16:53;;;;;;;4.60;3.78;;;26.30;63.00;;;;;;4998734;28;20978;-73
2021/08/06 00:19:19;;;;;;;7.85;3.60;;;26.30;63.50;;;;;;5005947;28;20185;-74
2021/08/06 00:21:45;;;;;;;8.77;4.03;;;26.30;63.40;;;;;;5006745;28;20681;-73
2021/08/06 00:24:11;;;;;;;3.70;3.25;;;26.30;63.20;;;;;;5007666;28;20185;-74
2021/08/06 00:26:36;;;;;;;4.35;3.97;;;26.30;63.40;;;;;;5005714;28;20539;-73
2021/08/06 00:29:02;;;;;;;8.40;3.63;;;26.30;63.10;;;;;;4993932;28;20197;-73
2021/08/06 00:31:28;;;;;;;7.32;3.15;;;26.30;63.20;;;;;;5006912;28;20185;-75
2021/08/06 00:33:54;;;;;;;8.35;3.95;;;26.30;63.10;;;;;;5011070;28;20260;-73
2021/08/06 00:36:19;;;;;;;7.20;3.22;;;26.30;63.20;;;;;;4994916;28;20182;-73
2021/08/06 00:38:45;;;;;;;5.85;2.97;;;26.30;63.10;;;;;;5006469;28;20192;-73
2021/08/06 00:41:11;;;;;;;9.07;3.50;;;26.30;63.60;;;;;;5003261;28;20655;-73
2021/08/06 00:43:37;;;;;;;4.40;2.33;;;26.30;63.70;;;;;;5006582;28;20185;-73
2021/08/06 00:46:04;;;;;;;5.45;2.45;;;26.30;63.30;;;;;;5003308;28;20197;-73
2021/08/06 00:48:31;;;;;;;6.82;2.70;;;26.30;63.60;;;;;;5007188;28;20216;-73
2021/08/06 00:50:57;;;;;;;13.95;3.10;;;26.30;63.30;;;;;;5007025;28;20220;-73
2021/08/06 00:53:24;;;;;;;4.18;3.05;;;26.30;63.40;;;;;;4999836;28;20653;-72
2021/08/06 00:55:50;;;;;;;4.63;2.63;;;26.30;63.00;;;;;;5006888;28;20623;-73
2021/08/06 00:58:17;;;;;;;6.90;2.65;;;26.30;63.20;;;;;;4999319;28;20200;-74
2021/08/06 01:00:46;;;;;;;4.30;3.25;;;26.30;63.30;;;;;;5004113;28;20250;-76
2021/08/06 01:03:25;;;;;;;3.92;3.15;;;26.30;63.70;;;;;;5009484;28;20196;-75
2021/08/06 01:05:56;;;;;;;2.72;2.53;;;26.30;63.20;;;;;;5006700;28;20236;-74
2021/08/06 01:08:53;;;;;;;6.80;2.83;;;26.30;63.10;;;;;;5002720;28;20197;-74
2021/08/06 01:11:23;;;;;;;4.40;2.20;;;26.20;63.40;;;;;;5002944;28;20225;-74
2021/08/06 01:13:56;;;;;;;11.40;2.80;;;26.20;63.50;;;;;;5001986;28;20185;-74
2021/08/06 01:16:29;;;;;;;2.65;2.45;;;26.10;63.70;;;;;;5009030;28;20189;-73
2021/08/06 01:19:16;;;;;;;4.72;2.75;;;26.10;63.90;;;;;;5012270;28;20701;-76
2021/08/06 01:21:44;;;;;;;3.90;2.55;;;26.00;64.00;;;;;;5010690;28;20252;-76
2021/08/06 01:24:13;;;;;;;8.98;2.70;;;26.00;64.30;;;;;;5008021;28;20188;-74
2021/08/06 01:26:41;;;;;;;4.72;2.92;;;26.00;64.30;;;;;;4999069;28;20188;-74
2021/08/06 01:29:08;;;;;;;4.90;2.90;;;26.00;64.30;;;;;;5003194;28;20178;-74
2021/08/06 01:31:34;;;;;;;12.23;3.05;;;25.90;64.40;;;;;;5006603;28;20234;-75
2021/08/06 01:33:59;;;;;;;6.68;3.25;;;25.90;64.60;;;;;;5005566;28;20181;-75
2021/08/06 01:36:25;;;;;;;3.33;3.10;;;25.90;64.60;;;;;;5010213;28;21047;-75
2021/08/06 01:38:51;;;;;;;4.63;2.78;;;25.90;64.20;;;;;;5009756;28;20181;-75
2021/08/06 01:41:23;;;;;;;3.92;2.80;;;25.80;64.60;;;;;;4996939;28;20659;-74
2021/08/06 01:44:23;;;;;;;6.18;2.55;;;25.80;64.50;;;;;;5006589;28;20229;-75
2021/08/06 01:47:05;;;;;;;10.20;3.10;;;25.80;65.20;;;;;;5003956;28;20256;-74
2021/08/06 01:49:34;;;;;;;7.53;3.15;;;25.80;65.10;;;;;;4994109;28;20721;-75
2021/08/06 01:52:08;;;;;;;5.85;2.65;;;25.80;65.40;;;;;;5005929;28;20259;-74
2021/08/06 01:54:36;;;;;;;3.20;2.97;;;25.80;64.50;;;;;;4998271;28;20189;-75
2021/08/06 01:57:03;;;;;;;7.25;2.67;;;25.80;65.30;;;;;;5008212;28;20684;-75
2021/08/06 01:59:30;;;;;;;6.35;3.35;;;25.80;64.90;;;;;;5007413;28;20185;-74
2021/08/06 02:01:57;;;;;;;3.50;2.63;;;25.70;65.10;;;;;;5002145;28;20250;-75
2021/08/06 02:04:24;;;;;;;3.13;2.75;;;25.80;65.40;;;;;;5009444;28;20267;-74
2021/08/06 02:06:51;;;;;;;4.00;2.85;;;25.70;65.20;;;;;;5003657;28;20260;-74
2021/08/06 02:09:18;;;;;;;3.38;3.08;;;25.70;65.50;;;;;;5016073;28;20232;-74
2021/08/06 02:11:45;;;;;;;4.65;2.90;;;25.70;65.30;;;;;;5005377;28;20185;-74
2021/08/06 02:14:17;;;;;;;6.97;3.15;;;25.70;65.20;;;;;;5001297;28;20252;-74
2021/08/06 02:16:44;;;;;;;3.42;3.13;;;25.60;65.40;;;;;;5003698;28;20185;-74
2021/08/06 02:19:13;;;;;;;8.65;3.00;;;25.60;65.30;;;;;;4998750;28;20192;-74
2021/08/06 02:21:40;;;;;;;4.63;3.15;;;25.60;65.90;;;;;;5001777;28;20217;-75
2021/08/06 02:24:09;;;;;;;5.95;3.15;;;25.50;66.10;;;;;;5008610;28;20172;-74
2021/08/06 02:26:38;;;;;;;3.42;3.03;;;25.50;66.20;;;;;;4999850;28;20287;-74
2021/08/06 02:29:08;;;;;;;2.50;2.40;;;25.40;65.90;;;;;;5007131;28;20195;-74
2021/08/06 02:31:35;;;;;;;4.88;3.13;;;25.30;66.30;;;;;;4994473;28;20275;-75
2021/08/06 02:34:01;;;;;;;4.15;3.35;;;25.30;67.10;;;;;;4999649;28;20251;-75
2021/08/06 02:36:27;;;;;;;10.38;3.28;;;25.20;67.00;;;;;;5002236;28;20243;-74
2021/08/06 02:38:57;;;;;;;7.13;3.58;;;25.10;67.20;;;;;;5010347;28;20238;-74
2021/08/06 02:41:23;;;;;;;5.22;2.90;;;25.10;67.30;;;;;;5002917;28;20180;-74
2021/08/06 02:43:49;;;;;;;3.58;2.90;;;25.00;67.80;;;;;;5006330;28;20557;-74
2021/08/06 02:46:17;;;;;;;9.52;3.03;;;25.00;68.30;;;;;;5006739;28;20188;-74
2021/08/06 02:48:43;;;;;;;5.72;3.20;;;25.00;67.90;;;;;;5008330;28;20267;-74
2021/08/06 02:51:09;;;;;;;5.70;3.15;;;24.90;67.60;;;;;;5006987;28;20218;-74
2021/08/06 02:53:35;;;;;;;7.03;2.45;;;24.90;67.90;;;;;;4998062;28;20207;-74
2021/08/06 02:56:01;;;;;;;6.45;2.90;;;24.90;68.10;;;;;;5001031;28;20292;-74
2021/08/06 02:58:27;;;;;;;5.68;2.63;;;24.90;67.70;;;;;;5004326;28;20734;-74
2021/08/06 03:00:53;;;;;;;7.60;3.25;;;24.90;68.90;;;;;;5005615;28;20185;-74
2021/08/06 03:03:18;;;;;;;4.68;2.50;;;24.90;68.80;;;;;;5006527;28;20193;-75
2021/08/06 03:05:44;;;;;;;8.52;2.72;;;24.90;67.70;;;;;;5008860;28;20199;-76
2021/08/06 03:08:09;;;;;;;5.35;2.67;;;24.90;68.50;;;;;;5001428;28;20208;-75
2021/08/06 03:10:35;;;;;;;3.65;2.47;;;24.90;67.90;;;;;;4999754;28;20255;-74
2021/08/06 03:13:01;;;;;;;4.40;2.60;;;24.90;68.40;;;;;;5002179;28;20676;-74
2021/08/06 03:15:27;;;;;;;5.13;2.50;;;24.80;68.40;;;;;;5004413;28;20185;-75
2021/08/06 03:17:53;;;;;;;9.73;2.58;;;24.80;68.30;;;;;;5003924;28;20637;-75
2021/08/06 03:20:22;;;;;;;5.07;2.25;;;24.80;68.80;;;;;;5007415;28;20200;-75
2021/08/06 03:22:48;;;;;;;2.42;1.85;;;24.80;68.20;;;;;;5006021;28;20183;-75
2021/08/06 03:25:14;;;;;;;3.33;2.22;;;24.80;69.10;;;;;;5008249;28;20745;-76
2021/08/06 03:27:40;;;;;;;2.47;2.20;;;24.70;69.90;;;;;;5006235;28;20199;-75
2021/08/06 03:30:08;;;;;;;3.13;1.85;;;24.60;70.50;;;;;;5009554;28;20205;-75
2021/08/06 03:32:34;;;;;;;4.70;2.20;;;24.50;71.60;;;;;;5001538;28;20184;-75
2021/08/06 03:34:59;;;;;;;1.83;1.73;;;24.30;72.10;;;;;;5008194;28;20185;-74
2021/08/06 03:37:25;;;;;;;2.17;1.98;;;24.10;72.80;;;;;;4998696;28;20207;-75
2021/08/06 03:39:51;;;;;;;5.68;1.40;;;23.90;73.70;;;;;;5004299;28;20212;-75
2021/08/06 03:42:16;;;;;;;2.60;1.83;;;23.70;74.70;;;;;;5004155;28;20188;-75
2021/08/06 03:44:42;;;;;;;3.17;1.65;;;23.50;75.10;;;;;;4999723;28;20192;-75
2021/08/06 03:47:08;;;;;;;1.60;1.50;;;23.10;76.50;;;;;;5000395;28;20189;-74
2021/08/06 03:49:33;;;;;;;1.83;1.73;;;22.90;77.00;;;;;;5002227;28;20213;-74
2021/08/06 03:51:59;;;;;;;1.65;1.65;;;22.60;78.60;;;;;;5002557;28;20272;-74
2021/08/06 03:54:25;;;;;;;4.75;2.17;;;22.20;80.10;;;;;;5007587;28;20184;-75
2021/08/06 03:56:50;;;;;;;1.83;1.73;;;21.90;80.60;;;;;;5005122;28;20181;-75
2021/08/06 03:59:16;;;;;;;2.88;1.60;;;21.60;80.80;;;;;;5004503;28;20185;-74
2021/08/06 04:01:42;;;;;;;2.17;1.42;;;21.40;84.20;;;;;;5002438;28;20181;-75
2021/08/06 04:04:08;;;;;;;1.55;1.30;;;21.20;83.90;;;;;;4995889;28;20181;-74
2021/08/06 04:06:34;;;;;;;1.63;1.52;;;21.10;84.10;;;;;;5000412;28;20287;-74
2021/08/06 04:09:00;;;;;;;6.05;1.75;;;21.00;84.30;;;;;;5008692;28;20205;-75
2021/08/06 04:11:26;;;;;;;2.20;1.88;;;20.90;84.20;;;;;;4999986;28;20224;-75
2021/08/06 04:13:51;;;;;;;2.80;1.42;;;20.80;84.50;;;;;;5003738;28;20196;-74
2021/08/06 04:16:17;;;;;;;1.45;1.35;;;20.70;83.90;;;;;;5010738;28;20216;-75
2021/08/06 04:18:43;;;;;;;1.42;1.42;;;20.70;83.80;;;;;;5002758;28;20978;-76
2021/08/06 04:21:09;;;;;;;3.35;1.55;;;20.70;83.90;;;;;;5011556;28;20185;-75
2021/08/06 04:23:34;;;;;;;1.90;1.35;;;20.80;83.80;;;;;;5008496;28;20230;-75
2021/08/06 04:26:00;;;;;;;1.50;1.40;;;20.80;84.10;;;;;;5005891;28;20192;-75
2021/08/06 04:28:26;;;;;;;4.43;1.75;;;20.80;83.60;;;;;;5006184;28;20638;-75
2021/08/06 04:30:52;;;;;;;2.35;1.48;;;20.90;86.00;;;;;;5006411;28;20266;-75
2021/08/06 04:33:17;;;;;;;3.00;1.83;;;20.90;84.40;;;;;;4996254;28;20217;-75
2021/08/06 04:35:43;;;;;;;1.42;1.42;;;21.00;83.20;;;;;;5007742;28;20268;-74
2021/08/06 04:38:09;;;;;;;1.58;1.38;;;21.00;82.70;;;;;;5003180;28;20191;-75
2021/08/06 04:40:37;;;;;;;1.42;1.42;;;21.10;82.70;;;;;;5007747;28;20192;-75
2021/08/06 04:43:03;;;;;;;2.13;1.73;;;21.10;82.50;;;;;;5004100;28;20181;-75
2021/08/06 04:45:29;;;;;;;1.80;1.38;;;21.20;83.20;;;;;;5012388;28;20180;-75
2021/08/06 04:48:00;;;;;;;1.15;1.15;;;21.20;83.00;;;;;;5011809;28;20224;-75
2021/08/06 04:50:25;;;;;;;2.53;1.60;;;21.30;82.50;;;;;;5005796;28;20216;-75
2021/08/06 04:52:51;;;;;;;2.35;1.70;;;21.30;82.60;;;;;;5014469;28;20184;-75
2021/08/06 04:55:18;;;;;;;1.38;1.20;;;21.40;82.10;;;;;;5002583;28;20238;-75
2021/08/06 04:57:45;;;;;;;1.73;1.60;;;21.40;81.10;;;;;;4998731;28;20177;-74
2021/08/06 05:00:11;;;;;;;3.08;1.27;;;21.40;80.60;;;;;;5004667;28;20212;-74
2021/08/06 05:02:37;;;;;;;1.20;1.20;;;21.40;81.10;;;;;;5006530;28;20185;-75
2021/08/06 05:05:03;;;;;;;4.00;1.83;;;21.40;82.30;;;;;;5003926;28;20189;-75
2021/08/06 05:07:29;;;;;;;1.35;1.25;;;21.50;81.60;;;;;;5004636;28;20173;-75
2021/08/06 05:09:56;;;;;;;1.95;1.63;;;21.60;81.20;;;;;;5009836;28;20228;-74
2021/08/06 05:12:22;;;;;;;1.40;1.23;;;21.60;81.90;;;;;;5005483;28;20188;-74
2021/08/06 05:14:48;;;;;;;2.10;1.70;;;21.70;82.20;;;;;;5009527;28;20238;-75
2021/08/06 05:17:13;;;;;;;1.70;1.60;;;21.80;82.00;;;;;;4997817;28;20304;-75
2021/08/06 05:19:39;;;;;;;1.95;1.83;;;21.90;82.20;;;;;;4989820;28;20181;-75
2021/08/06 05:22:05;;;;;;;2.50;1.55;;;21.90;81.70;;;;;;4983692;28;20183;-75
2021/08/06 05:24:31;;;;;;;1.85;1.70;;;22.00;81.50;;;;;;4981872;28;20585;-74
2021/08/06 05:26:57;;;;;;;1.45;1.45;;;22.10;81.90;;;;;;4979341;28;20273;-75
2021/08/06 05:29:23;;;;;;;2.08;1.98;;;22.10;81.70;;;;;;4981916;28;20185;-74
2021/08/06 05:31:48;;;;;;;3.45;2.08;;;22.20;81.40;;;;;;4983526;28;20225;-74
2021/08/06 05:34:14;;;;;;;3.08;1.52;;;22.20;81.20;;;;;;4987447;28;21139;-73
2021/08/06 05:36:40;;;;;;;3.42;1.75;;;22.30;81.30;;;;;;5006362;28;20679;-73
2021/08/06 05:39:05;;;;;;;4.43;1.75;;;22.30;81.80;;;;;;4981786;28;20181;-74
2021/08/06 05:41:31;;;;;;;4.10;2.25;;;22.40;80.90;;;;;;4988332;28;20315;-75
2021/08/06 05:43:57;;;;;;;5.25;2.13;;;22.50;81.10;;;;;;4986368;28;20186;-75
2021/08/06 05:46:23;;;;;;;2.25;2.15;;;22.50;80.70;;;;;;4993901;28;20539;-75
2021/08/06 05:48:48;;;;;;;2.42;2.22;;;22.60;80.60;;;;;;4991623;28;20197;-74
2021/08/06 05:51:14;;;;;;;2.33;2.13;;;22.70;80.90;;;;;;5007174;28;20698;-75
2021/08/06 05:53:39;;;;;;;4.82;2.67;;;22.70;82.90;;;;;;4991676;28;20185;-75
2021/08/06 05:56:05;;;;;;;2.60;2.38;;;22.70;82.90;;;;;;4988082;28;20687;-75
2021/08/06 05:58:31;;;;;;;3.88;2.58;;;22.70;81.50;;;;;;4985973;28;20702;-75
2021/08/06 06:00:58;;;;;;;2.42;2.22;;;22.70;81.60;;;;;;5004610;28;20208;-74
2021/08/06 06:03:23;;;;;;;2.78;2.28;;;22.60;82.50;;;;;;4999922;28;20186;-75
2021/08/06 06:05:49;;;;;;;2.33;2.10;;;22.60;81.20;;;;;;5005014;28;20587;-75
2021/08/06 06:08:15;;;;;;;4.60;2.22;;;22.50;81.90;;;;;;4998579;28;20170;-75
2021/08/06 06:10:40;;;;;;;4.72;2.30;;;22.40;81.00;;;;;;4983725;28;20214;-75
2021/08/06 06:13:06;;;;;;;3.08;1.98;;;22.40;81.50;;;;;;4986796;28;20181;-75
2021/08/06 06:15:32;;;;;;;4.22;2.20;;;22.30;81.10;;;;;;4989320;28;20625;-75
2021/08/06 06:17:58;;;;;;;4.13;2.13;;;22.30;80.80;;;;;;4989194;28;20269;-75
2021/08/06 06:20:24;;;;;;;1.75;1.75;;;22.30;81.70;;;;;;4984319;28;20190;-74
2021/08/06 06:22:49;;;;;;;2.30;2.20;;;22.20;81.10;;;;;;4985260;28;20185;-75
2021/08/06 06:25:16;;;;;;;3.92;2.00;;;22.30;82.10;;;;;;4996664;28;20184;-75
2021/08/06 06:27:56;;;;;;;3.72;1.95;;;22.30;81.00;;;;;;5003559;28;20190;-74
2021/08/06 06:30:24;;;;;;;3.38;2.28;;;22.30;81.40;;;;;;5005601;28;20220;-75
2021/08/06 06:32:54;;;;;;;2.38;2.08;;;22.30;81.70;;;;;;5003727;28;20930;-75
2021/08/06 06:35:20;;;;;;;5.68;2.25;;;22.40;82.00;;;;;;5006260;28;20176;-74
2021/08/06 06:37:46;;;;;;;3.20;2.22;;;22.50;82.40;;;;;;5003858;28;20239;-75
2021/08/06 06:40:13;;;;;;;3.72;2.17;;;22.50;80.80;;;;;;4981870;28;20198;-74
2021/08/06 06:42:39;;;;;;;2.70;2.08;;;22.60;81.20;;;;;;4988686;28;20182;-75
2021/08/06 06:45:05;;;;;;;2.17;1.98;;;22.60;81.00;;;;;;4988807;28;20181;-75
2021/08/06 06:47:38;;;;;;;5.00;2.38;;;22.70;80.60;;;;;;4988308;28;20190;-74
2021/08/06 06:50:06;;;;;;;2.22;1.85;;;22.80;79.30;;;;;;4988226;28;20212;-75
2021/08/06 06:52:31;;;;;;;3.42;2.15;;;22.90;80.70;;;;;;4988425;28;20261;-74
2021/08/06 06:54:58;;;;;;;2.47;2.38;;;23.00;79.50;;;;;;4988287;28;20261;-75
2021/08/06 06:57:23;;;;;;;2.47;2.28;;;23.10;79.10;;;;;;4988118;28;20182;-74
2021/08/06 06:59:49;;;;;;;2.00;1.90;;;23.20;78.80;;;;;;4988175;28;20178;-74
2021/08/06 07:02:15;;;;;;;3.28;2.30;;;23.20;78.90;;;;;;5004910;28;20177;-75
2021/08/06 07:04:40;;;;;;;2.22;2.05;;;23.10;78.90;;;;;;4994192;28;20570;-74
2021/08/06 07:07:06;;;;;;;1.95;1.85;;;23.10;78.50;;;;;;4988191;28;20695;-75
2021/08/06 07:09:31;;;;;;;3.03;2.22;;;23.10;77.60;;;;;;4998449;28;20690;-74
2021/08/06 07:11:57;;;;;;;8.00;2.35;;;23.20;78.40;;;;;;5000335;28;20176;-74
2021/08/06 07:14:23;;;;;;;2.20;2.10;;;23.20;78.30;;;;;;5003150;28;20201;-74
2021/08/06 07:16:48;;;;;;;2.65;2.05;;;23.30;78.40;;;;;;5002679;28;20239;-74
2021/08/06 07:19:14;;;;;;;3.15;1.88;;;23.30;78.10;;;;;;5001658;28;20181;-75
2021/08/06 07:21:43;;;;;;;2.40;2.30;;;23.20;78.70;;;;;;5002655;28;20181;-75
2021/08/06 07:24:09;;;;;;;2.40;2.20;;;23.20;78.20;;;;;;4997343;28;20184;-74
2021/08/06 07:26:35;;;;;;;2.30;2.20;;;23.20;77.20;;;;;;4988122;28;20182;-74
2021/08/06 07:29:00;;;;;;;3.30;1.85;;;23.30;77.40;;;;;;4988089;28;20189;-74
2021/08/06 07:31:26;;;;;;;2.30;2.15;;;23.30;77.20;;;;;;4988223;28;20271;-75
2021/08/06 07:33:52;;;;;;;2.20;2.10;;;23.40;77.50;;;;;;4987952;28;20848;-75
2021/08/06 07:36:19;;;;;;;2.50;2.35;;;23.50;76.70;;;;;;4992481;28;20235;-74
2021/08/06 07:38:45;;;;;;;2.08;1.92;;;23.60;76.70;;;;;;5000467;28;20192;-76
2021/08/06 07:41:11;;;;;;;2.30;1.90;;;23.70;76.40;;;;;;4972906;28;20623;-75
2021/08/06 07:43:36;;;;;;;3.65;2.38;;;23.90;77.20;;;;;;4997514;28;20185;-75
2021/08/06 07:46:02;;;;;;;2.75;2.58;;;23.90;75.80;;;;;;4997135;28;20662;-75
2021/08/06 07:48:28;;;;;;;3.55;2.25;;;23.90;75.80;;;;;;4983420;28;20643;-75
2021/08/06 07:50:53;;;;;;;2.78;2.63;;;23.90;75.80;;;;;;4996363;28;20226;-75
2021/08/06 07:53:19;;;;;;;2.58;2.38;;;23.90;76.10;;;;;;4986564;28;20181;-76
2021/08/06 07:55:45;;;;;;;3.80;2.63;;;23.90;76.00;;;;;;4991928;28;20267;-74
2021/08/06 07:58:11;;;;;;;2.70;2.53;;;23.90;76.50;;;;;;4992025;28;20193;-74
2021/08/06 08:00:37;;;;;;;2.28;2.17;;;23.90;75.80;;;;;;4991867;28;20313;-75
2021/08/06 08:03:02;;;;;;;3.15;2.38;;;23.90;75.70;;;;;;4991343;28;20182;-74
2021/08/06 08:05:34;;;;;;;3.20;2.60;;;24.00;74.90;;;;;;4991287;28;20205;-74
2021/08/06 08:08:00;;;;;;;5.47;2.15;;;24.20;75.30;;;;;;4989025;28;20185;-74
2021/08/06 08:10:26;;;;;;;2.33;2.28;;;24.20;75.00;;;;;;5007183;28;20216;-73
2021/08/06 08:12:52;;;;;;;2.45;2.45;;;24.20;73.90;;;;;;5005999;28;20216;-75
2021/08/06 08:15:17;;;;;;;3.80;2.45;;;24.30;73.60;;;;;;5007455;28;20813;-75
2021/08/06 08:17:43;;;;;;;5.95;3.20;;;24.50;74.10;;;;;;5005958;28;20642;-75
2021/08/06 08:20:11;;;;;;;3.47;2.45;;;24.60;74.60;;;;;;5007119;28;20693;-75
2021/08/06 08:22:37;;;;;;;2.05;1.95;;;24.80;73.40;;;;;;5005474;28;20185;-75
2021/08/06 08:25:04;;;;;;;2.72;2.50;;;25.00;73.50;;;;;;4996570;28;20196;-73
2021/08/06 08:27:30;;;;;;;3.08;2.88;;;25.00;73.40;;;;;;4991332;28;20185;-74
2021/08/06 08:29:56;;;;;;;2.45;2.38;;;25.00;73.30;;;;;;4990972;28;20606;-75
2021/08/06 08:32:21;;;;;;;3.75;2.40;;;25.10;72.70;;;;;;4991508;28;20324;-76
2021/08/06 08:34:47;;;;;;;5.65;2.60;;;25.20;72.50;;;;;;4991192;28;20220;-76
2021/08/06 08:37:14;;;;;;;2.35;2.25;;;25.40;72.10;;;;;;4990928;28;20251;-76
2021/08/06 08:39:40;;;;;;;3.10;2.90;;;25.50;71.30;;;;;;4978051;28;20581;-76
2021/08/06 08:42:07;;;;;;;3.60;2.72;;;25.70;71.20;;;;;;4986785;28;20189;-76
2021/08/06 08:44:34;;;;;;;3.10;3.00;;;25.80;71.10;;;;;;4980185;28;20182;-75
2021/08/06 08:47:02;;;;;;;2.90;2.67;;;26.00;70.90;;;;;;4983090;28;20213;-75
2021/08/06 08:49:31;;;;;;;2.85;2.75;;;26.00;70.50;;;;;;4982705;28;20595;-76
2021/08/06 08:51:57;;;;;;;4.78;2.30;;;26.00;69.80;;;;;;4983293;28;20264;-75
2021/08/06 08:54:23;;;;;;;2.88;2.70;;;26.00;69.10;;;;;;4971161;28;20210;-75
2021/08/06 08:56:49;;;;;;;3.30;3.00;;;26.10;69.50;;;;;;4975413;28;20293;-75
2021/08/06 08:59:15;;;;;;;4.03;3.22;;;26.20;69.70;;;;;;4996932;28;20915;-75
2021/08/06 09:01:41;;;;;;;4.47;3.20;;;26.30;69.50;;;;;;5005272;28;20186;-74
2021/08/06 09:04:28;;;;;;;3.40;3.20;;;26.50;69.50;;;;;;4991702;28;20189;-76
2021/08/06 09:06:55;;;;;;;2.90;2.80;;;26.80;69.40;;;;;;4982579;28;20213;-76
2021/08/06 09:09:26;;;;;;;3.47;3.28;;;27.00;68.80;;;;;;4984100;28;20201;-75
2021/08/06 09:12:06;;;;;;;4.43;4.07;;;27.30;68.10;;;;;;4995115;28;20686;-75
2021/08/06 09:14:34;;;;;;;4.65;4.32;;;27.40;66.70;;;;;;4977040;28;20244;-76
2021/08/06 09:17:01;;;;;;;4.25;4.07;;;27.40;66.50;;;;;;4971719;28;20194;-76
2021/08/06 09:19:29;;;;;;;5.07;4.40;;;27.50;66.20;;;;;;4973339;28;20252;-75
2021/08/06 09:22:11;;;;;;;4.88;4.57;;;27.50;66.20;;;;;;4994453;28;20174;-76
2021/08/06 09:24:58;;;;;;;5.13;4.82;;;27.50;65.50;;;;;;4984651;28;20188;-76
2021/08/06 09:27:25;;;;;;;5.30;4.90;;;27.50;65.20;;;;;;4976410;28;20729;-75
2021/08/06 09:29:51;;;;;;;5.00;4.80;;;27.50;65.40;;;;;;4982197;28;20245;-75
2021/08/06 09:32:17;;;;;;;4.97;4.68;;;27.50;64.70;;;;;;4978048;28;20283;-75
2021/08/06 09:34:44;;;;;;;4.30;4.00;;;27.50;64.70;;;;;;4990587;28;20184;-75
2021/08/06 09:37:18;;;;;;;4.38;4.18;;;27.50;64.40;;;;;;4979655;28;20271;-75
2021/08/06 09:39:50;;;;;;;5.13;4.72;;;27.60;64.90;;;;;;4973784;28;20328;-76
2021/08/06 09:42:22;;;;;;;4.93;4.53;;;27.80;63.80;;;;;;4986509;28;20181;-76
2021/08/06 09:45:09;;;;;;;4.72;4.43;;;28.00;63.30;;;;;;4974110;28;20186;-72
2021/08/06 09:47:37;;;;;;;4.63;4.30;;;28.20;63.30;;;;;;5015613;28;20193;-76
2021/08/06 09:50:09;;;;;;;5.40;5.07;;;28.50;62.00;;;;;;4985701;28;20252;-75
2021/08/06 09:52:37;;;;;;;5.28;4.97;;;28.80;61.10;;;;;;4978676;28;20585;-75
2021/08/06 09:55:05;;;;;;;5.30;4.95;;;29.20;60.40;;;;;;4987980;28;20239;-75
2021/08/06 09:57:31;;;;;;;4.43;4.22;;;29.50;60.30;;;;;;4987910;28;20184;-75
2021/08/06 09:59:59;;;;;;;4.47;4.18;;;29.90;59.30;;;;;;4986393;28;20182;-75
2021/08/06 10:02:27;;;;;;;3.90;3.70;;;30.20;58.50;;;;;;4973920;28;20186;-75
2021/08/06 10:05:03;;;;;;;4.07;3.88;;;30.40;57.90;;;;;;4983896;28;20224;-75
2021/08/06 10:07:32;;;;;;;3.80;3.63;;;30.70;57.80;;;;;;4987226;28;20246;-75
2021/08/06 10:09:58;;;;;;;4.20;4.03;;;31.00;56.60;;;;;;4978891;28;20668;-75
2021/08/06 10:12:24;;;;;;;4.05;3.85;;;31.30;55.80;;;;;;4990267;28;20212;-75
2021/08/06 10:14:50;;;;;;;5.78;3.70;;;31.60;55.50;;;;;;4986734;28;20216;-75
2021/08/06 10:17:16;;;;;;;3.42;3.17;;;31.70;55.20;;;;;;4988202;28;20590;-75
2021/08/06 10:19:42;;;;;;;3.45;3.15;;;32.10;54.70;;;;;;4979869;28;20189;-75
2021/08/06 10:22:09;;;;;;;3.38;2.88;;;32.40;54.40;;;;;;4974273;28;20186;-75
2021/08/06 10:24:36;;;;;;;3.03;2.90;;;32.70;54.50;;;;;;4984650;28;20214;-75
2021/08/06 10:27:03;;;;;;;2.65;2.55;;;33.10;54.10;;;;;;4989829;28;20844;-75
2021/08/06 10:29:29;;;;;;;2.85;2.75;;;33.50;53.00;;;;;;4997793;28;20193;-75
2021/08/06 10:32:15;;;;;;;2.88;2.72;;;33.90;53.10;;;;;;4985469;28;20193;-75
2021/08/06 10:35:04;;;;;;;2.78;2.67;;;34.40;51.50;;;;;;4996745;28;20182;-75
2021/08/06 10:37:54;;;;;;;4.10;2.80;;;34.70;51.10;;;;;;4966185;28;20727;-75
2021/08/06 10:40:32;;;;;;;2.50;2.40;;;35.20;50.40;;;;;;4960674;28;20256;-75
2021/08/06 10:43:37;;;;;;;3.05;2.30;;;35.70;50.00;;;;;;4964035;28;20205;-75
2021/08/06 10:46:04;;;;;;;2.30;2.17;;;36.00;49.20;;;;;;4964368;28;20364;-75
2021/08/06 10:48:35;;;;;;;2.00;2.00;;;36.40;48.70;;;;;;4970982;28;20468;-75
2021/08/06 10:51:16;;;;;;;2.28;2.17;;;36.60;49.50;;;;;;4969521;28;20305;-75
2021/08/06 10:53:46;;;;;;;2.28;2.20;;;36.90;47.90;;;;;;4974060;28;20699;-75
2021/08/06 10:56:17;;;;;;;3.33;1.95;;;37.00;47.30;;;;;;4965983;28;20657;-75
2021/08/06 10:58:49;;;;;;;2.17;2.08;;;36.90;47.70;;;;;;4971522;28;20199;-75
2021/08/06 11:01:33;;;;;;;2.03;2.00;;;36.90;47.90;;;;;;4980315;28;20284;-75
2021/08/06 11:04:02;;;;;;;2.25;2.15;;;37.00;47.00;;;;;;4965379;28;20188;-75
2021/08/06 11:06:34;;;;;;;1.63;1.58;;;37.30;47.50;;;;;;4974567;28;20186;-73
2021/08/06 11:09:07;;;;;;;1.92;1.88;;;37.60;46.70;;;;;;4965556;28;20213;-75
2021/08/06 11:12:10;;;;;;;2.28;2.10;;;37.80;47.30;;;;;;4976334;28;20213;-73
2021/08/06 11:14:36;;;;;;;2.00;2.00;;;37.70;45.40;;;;;;4913208;29;20210;-73
2021/08/06 11:17:14;;;;;;;1.75;1.65;;;37.30;47.30;;;;;;4926478;29;20254;-73
2021/08/06 11:19:45;;;;;;;4.63;1.70;;;37.30;45.70;;;;;;4924591;29;20191;-75
2021/08/06 11:22:28;;;;;;;1.60;1.60;;;37.30;46.00;;;;;;4927007;29;20707;-74
2021/08/06 11:25:24;;;;;;;1.63;1.63;;;37.00;45.60;;;;;;4930977;29;20229;-75
2021/08/06 11:27:55;;;;;;;1.38;1.38;;;36.80;46.50;;;;;;4928897;29;20585;-75
2021/08/06 11:30:25;;;;;;;0.95;0.95;;;36.70;46.90;;;;;;4944299;29;20222;-75
2021/08/06 11:33:02;;;;;;;1.55;1.45;;;36.70;47.30;;;;;;4942778;29;20968;-75
2021/08/06 11:35:31;;;;;;;1.10;1.10;;;36.80;46.50;;;;;;4943858;29;20198;-75
2021/08/06 11:38:13;;;;;;;1.45;1.45;;;37.20;45.90;;;;;;4944360;29;20186;-75
2021/08/06 11:40:41;;;;;;;2.00;1.60;;;37.70;45.10;;;;;;4927644;29;20198;-74
2021/08/06 11:43:10;;;;;;;1.63;1.63;;;37.80;44.40;;;;;;4927400;29;20183;-73
2021/08/06 11:45:36;;;;;;;1.20;1.20;;;37.30;45.00;;;;;;4914882;29;20235;-73
2021/08/06 11:48:03;;;;;;;1.30;1.20;;;37.10;45.70;;;;;;4954026;28;20190;-75
2021/08/06 11:50:38;;;;;;;1.10;1.10;;;37.10;46.20;;;;;;5003743;28;20223;-76
2021/08/06 11:53:11;;;;;;;1.23;1.15;;;37.40;46.10;;;;;;5006729;28;20179;-75
2021/08/06 11:55:37;;;;;;;1.17;1.17;;;37.50;45.30;;;;;;5003361;28;20278;-74
2021/08/06 11:58:03;;;;;;;1.20;1.20;;;37.60;44.90;;;;;;5005521;28;20937;-74
2021/08/06 12:00:30;;;;;;;1.10;1.10;;;37.70;44.90;;;;;;5003426;28;20262;-75
2021/08/06 12:03:16;;;;;;;1.70;1.35;;;37.90;45.00;;;;;;4983744;28;20182;-75
2021/08/06 12:05:46;;;;;;;1.60;1.60;;;38.20;43.80;;;;;;4977693;28;20293;-75
2021/08/06 12:08:23;;;;;;;1.13;1.13;;;38.40;43.60;;;;;;4997029;28;20665;-73
2021/08/06 12:10:55;;;;;;;1.55;1.55;;;38.20;42.60;;;;;;5005069;28;20653;-74
2021/08/06 12:13:24;;;;;;;0.98;0.98;;;37.80;43.40;;;;;;5002255;28;20582;-75
2021/08/06 12:16:16;;;;;;;1.02;1.02;;;37.70;44.00;;;;;;5004031;28;20238;-73
2021/08/06 12:18:49;;;;;;;0.63;0.63;;;37.80;43.40;;;;;;4978266;28;20173;-73
2021/08/06 12:21:30;;;;;;;0.63;0.63;;;37.80;43.20;;;;;;4986000;28;20185;-73
2021/08/06 12:24:03;;;;;;;0.90;0.90;;;37.60;43.60;;;;;;4988073;28;20247;-73
2021/08/06 12:26:34;;;;;;;0.55;0.55;;;37.60;44.70;;;;;;4998041;28;20638;-73
2021/08/06 12:29:09;;;;;;;0.43;0.43;;;37.90;43.40;;;;;;4991340;28;20260;-73
2021/08/06 12:31:47;;;;;;;1.65;0.50;;;37.90;43.90;;;;;;4981729;28;20606;-74
2021/08/06 12:34:13;;;;;;;0.43;0.43;;;38.10;43.30;;;;;;4991259;28;20272;-74
2021/08/06 12:36:59;;;;;;;0.40;0.40;;;38.50;43.00;;;;;;4987031;28;20185;-73
2021/08/06 12:39:27;;;;;;;0.40;0.40;;;38.90;42.50;;;;;;4994955;28;20201;-73
2021/08/06 12:41:53;;;;;;;0.40;0.40;;;39.20;43.10;;;;;;5006738;28;20276;-73
2021/08/06 12:44:23;;;;;;;0.50;0.50;;;39.30;42.40;;;;;;5005713;28;20188;-74
2021/08/06 12:47:06;;;;;;;1.15;0.73;;;39.50;43.00;;;;;;5008061;28;20194;-74
2021/08/06 12:49:33;;;;;;;0.47;0.47;;;39.80;41.70;;;;;;5006016;28;20184;-74
2021/08/06 12:52:20;;;;;;;1.25;0.40;;;40.00;41.90;;;;;;5007961;28;20201;-74
2021/08/06 12:54:54;;;;;;;0.35;0.35;;;40.20;40.40;;;;;;5005765;28;20271;-74